Lakeville, MN

7:46 AM CDT on October 22, 2017 (GMT -0500)
Airlake

Weather History for KLVN - September, 2013

Change the Weather History Date:

Friday, September 20, 2013

  Actual Average Record
Temperature  
Mean Temperature 55 °F -  
Max Temperature 62 °F 68 °F 82 °F (1984)
Min Temperature 48 °F 47 °F 30 °F (1991)
Degree Days  
Heating Degree Days 10    
Growing Degree Days 5 (Base 50)    
Moisture  
Dew Point 51 °F    
Average Humidity 84    
Maximum Humidity 100    
Minimum Humidity 59    
Precipitation  
Precipitation 0.03 in - - ()
Sea Level Pressure  
Sea Level Pressure 29.87 in    
Wind  
Wind Speed 10 mph (West)    
Max Wind Speed 18 mph    
Max Gust Speed 25 mph    
Visibility 10 miles    
Events Rain    
Averages and records for this station are not official NWS values.
T = Trace of Precipitation, MM = Missing Value Source: NWS Daily Summary

Daily Weather History Graph

Daily Weather History Graph

Search for Another Location

Airport or City:

Trip Planner

Search our weather history database for the weather conditions in past years. The results will help you decide how hot, cold, wet, or windy it might be!

Date:

Astronomy

Sep. 20, 2013 Rise Set
Actual Time 6:57 AM CDT 7:13 PM CDT
Civil Twilight 6:28 AM CDT 7:42 PM CDT
Nautical Twilight 5:54 AM CDT 8:16 PM CDT
Astronomical Twilight 5:19 AM CDT 8:52 PM CDT
Moon 7:41 PM CDT (9/20) 8:18 AM CDT (9/20)
Length of Visible Light 13h 13m
Length of Day
12h 15m
Full, 98% of the Moon is Illuminated
Sep 20
Full
Sep 26
Last Quarter
Oct 4
New
Oct 11
First Quarter
Oct 18
Full

Hourly Weather History & Observations

Time (CDT) Temp. Dew Point Humidity Pressure Visibility Wind Dir Wind Speed Gust Speed Precip Events Conditions
12:12 AM 60.8 °F 55.4 °F 82% 29.80 in 10.0 mi West 8.1 mph - N/A   Clear
12:32 AM 60.8 °F 55.4 °F 82% 29.80 in 10.0 mi West 9.2 mph - N/A   Clear
12:52 AM 60.8 °F 53.6 °F 77% 29.81 in 10.0 mi West 11.5 mph - N/A   Clear
1:12 AM 59.0 °F 53.6 °F 82% 29.81 in 10.0 mi WNW 11.5 mph 16.1 mph N/A   Clear
1:32 AM 59.0 °F 51.8 °F 77% 29.82 in 10.0 mi West 10.4 mph - N/A   Clear
1:52 AM 57.2 °F 51.8 °F 82% 29.82 in 10.0 mi West 6.9 mph - N/A   Scattered Clouds
2:12 AM 57.2 °F 51.8 °F 82% 29.82 in 10.0 mi West 8.1 mph - N/A   Scattered Clouds
2:32 AM 57.2 °F 51.8 °F 82% 29.83 in 10.0 mi West 8.1 mph - N/A   Overcast
2:52 AM 57.2 °F 53.6 °F 88% 29.82 in 10.0 mi West 11.5 mph 16.1 mph N/A Rain Light Rain
3:13 AM 55.4 °F 53.6 °F 94% 29.83 in 10.0 mi West 8.1 mph - N/A   Mostly Cloudy
3:32 AM 55.4 °F 53.6 °F 94% 29.83 in 10.0 mi West 9.2 mph - N/A   Mostly Cloudy
3:53 AM 55.4 °F 51.8 °F 88% 29.83 in 10.0 mi West 9.2 mph - N/A   Mostly Cloudy
4:12 AM 55.4 °F 51.8 °F 88% 29.83 in 10.0 mi West 6.9 mph - N/A   Mostly Cloudy
4:32 AM 55.4 °F 51.8 °F 88% 29.83 in 10.0 mi West 9.2 mph - N/A   Mostly Cloudy
4:53 AM 53.6 °F 51.8 °F 94% 29.83 in 10.0 mi West 10.4 mph - N/A   Scattered Clouds
5:12 AM 53.6 °F 51.8 °F 94% 29.84 in 10.0 mi West 9.2 mph - N/A   Scattered Clouds
5:33 AM 53.6 °F 50.0 °F 88% 29.82 in 10.0 mi West 8.1 mph - N/A   Scattered Clouds
5:52 AM 51.8 °F 50.0 °F 94% 29.83 in 10.0 mi West 6.9 mph - N/A   Clear
6:12 AM 51.8 °F 50.0 °F 94% 29.82 in 10.0 mi West 8.1 mph - N/A   Scattered Clouds
6:33 AM 51.8 °F 50.0 °F 94% 29.84 in 10.0 mi West 11.5 mph 18.4 mph N/A   Overcast
6:52 AM 51.8 °F 50.0 °F 94% 29.84 in 10.0 mi West 13.8 mph 19.6 mph N/A   Overcast
7:12 AM 51.8 °F 50.0 °F 94% 29.85 in 10.0 mi West 9.2 mph - N/A   Overcast
7:33 AM 53.6 °F 51.8 °F 94% 29.85 in 10.0 mi West 9.2 mph - N/A   Overcast
7:52 AM 53.6 °F 51.8 °F 94% 29.85 in 7.0 mi West 8.1 mph - N/A   Overcast
8:12 AM 53.6 °F 51.8 °F 94% 29.85 in 4.0 mi WSW 6.9 mph - N/A   Overcast
8:33 AM 53.6 °F 51.8 °F 94% 29.85 in 7.0 mi WSW 5.8 mph - N/A   Overcast
8:52 AM 53.6 °F 51.8 °F 94% 29.86 in 10.0 mi West 6.9 mph - N/A   Overcast
9:12 AM 55.4 °F 53.6 °F 94% 29.85 in 10.0 mi WSW 8.1 mph - N/A   Overcast
9:33 AM 55.4 °F 53.6 °F 94% 29.85 in 10.0 mi West 9.2 mph - N/A   Overcast
9:52 AM 57.2 °F 53.6 °F 88% 29.86 in 10.0 mi West 8.1 mph - N/A   Overcast
10:12 AM 57.2 °F 53.6 °F 88% 29.86 in 3.0 mi West 6.9 mph - N/A   Overcast
10:32 AM 55.4 °F 55.4 °F 100% 29.86 in 3.0 mi West 8.1 mph - N/A   Overcast
10:52 AM 55.4 °F 55.4 °F 100% 29.87 in 3.0 mi West 8.1 mph - N/A Rain Light Rain
11:12 AM 57.2 °F 55.4 °F 94% 29.87 in 10.0 mi West 10.4 mph - N/A   Overcast
11:32 AM 57.2 °F 55.4 °F 94% 29.87 in 10.0 mi WNW 12.7 mph 18.4 mph N/A   Overcast
11:52 AM 57.2 °F 53.6 °F 88% 29.87 in 10.0 mi WNW 17.3 mph 21.9 mph N/A   Overcast
12:12 PM 59.0 °F 53.6 °F 82% 29.87 in 10.0 mi WNW 18.4 mph 21.9 mph N/A   Overcast
12:32 PM 59.0 °F 53.6 °F 82% 29.87 in 10.0 mi WNW 12.7 mph 18.4 mph N/A   Overcast
12:52 PM 60.8 °F 51.8 °F 72% 29.88 in 10.0 mi WNW 12.7 mph 18.4 mph N/A   Overcast
1:12 PM 62.6 °F 51.8 °F 68% 29.87 in 10.0 mi WNW 12.7 mph - N/A   Overcast
1:32 PM 62.6 °F 51.8 °F 68% 29.87 in 10.0 mi WNW 13.8 mph 20.7 mph N/A   Mostly Cloudy
1:52 PM 60.8 °F 50.0 °F 68% 29.87 in 10.0 mi WNW 10.4 mph 17.3 mph N/A   Mostly Cloudy
2:12 PM 60.8 °F 51.8 °F 72% 29.87 in 10.0 mi West 8.1 mph - N/A   Mostly Cloudy
2:32 PM 62.6 °F 51.8 °F 68% 29.86 in 10.0 mi WNW 13.8 mph 19.6 mph N/A   Mostly Cloudy
2:52 PM 62.6 °F 48.2 °F 59% 29.86 in 10.0 mi WNW 12.7 mph 18.4 mph N/A   Overcast
3:13 PM 62.6 °F 50.0 °F 63% 29.87 in 10.0 mi WNW 13.8 mph 19.6 mph N/A   Overcast
3:32 PM 60.8 °F 48.2 °F 63% 29.87 in 10.0 mi WNW 12.7 mph - N/A   Overcast
3:52 PM 60.8 °F 50.0 °F 68% 29.86 in 10.0 mi WNW 10.4 mph - N/A   Overcast
4:13 PM 62.6 °F 50.0 °F 63% 29.86 in 10.0 mi WNW 11.5 mph - N/A   Mostly Cloudy
4:32 PM 60.8 °F 48.2 °F 63% 29.86 in 10.0 mi NW 10.4 mph - N/A   Mostly Cloudy
4:52 PM 60.8 °F 48.2 °F 63% 29.87 in 10.0 mi WNW 10.4 mph - N/A   Overcast
5:13 PM 60.8 °F 48.2 °F 63% 29.86 in 10.0 mi NW 8.1 mph - N/A   Mostly Cloudy
5:32 PM 60.8 °F 48.2 °F 63% 29.87 in 10.0 mi West 10.4 mph 19.6 mph N/A   Mostly Cloudy
5:52 PM 55.4 °F 51.8 °F 88% 29.88 in 7.0 mi WNW 9.2 mph - 0.03 in Rain Rain
6:12 PM 55.4 °F 51.8 °F 88% 29.88 in 10.0 mi WNW 8.1 mph - N/A   Overcast
6:32 PM 55.4 °F 51.8 °F 88% 29.89 in 10.0 mi West 8.1 mph - N/A   Mostly Cloudy
6:52 PM 55.4 °F 51.8 °F 88% 29.89 in 10.0 mi WNW 9.2 mph - N/A   Mostly Cloudy
7:12 PM 55.4 °F 50.0 °F 82% 29.89 in 10.0 mi WNW 10.4 mph - N/A   Mostly Cloudy
7:32 PM 53.6 °F 48.2 °F 82% 29.90 in 10.0 mi NW 15.0 mph 25.3 mph N/A   Mostly Cloudy
7:52 PM 53.6 °F 48.2 °F 82% 29.91 in 10.0 mi WNW 12.7 mph - N/A Rain Rain
8:12 PM 51.8 °F 48.2 °F 88% 29.91 in 10.0 mi West 8.1 mph - N/A   Overcast
8:32 PM 51.8 °F 50.0 °F 94% 29.92 in 10.0 mi West 5.8 mph - N/A   Overcast
8:52 PM 51.8 °F 48.2 °F 88% 29.92 in 10.0 mi WNW 9.2 mph - N/A   Overcast
9:12 PM 51.8 °F 48.2 °F 88% 29.93 in 10.0 mi WNW 8.1 mph - N/A   Overcast
9:33 PM 51.8 °F 46.4 °F 82% 29.93 in 10.0 mi WNW 8.1 mph - N/A   Scattered Clouds
9:52 PM 48.2 °F 46.4 °F 93% 29.93 in 10.0 mi West 6.9 mph - N/A   Clear
10:12 PM 48.2 °F 46.4 °F 93% 29.94 in 10.0 mi WNW 6.9 mph - N/A   Clear
10:33 PM 48.2 °F 46.4 °F 93% 29.94 in 10.0 mi WNW 6.9 mph - N/A   Clear
10:52 PM 48.2 °F 46.4 °F 93% 29.93 in 10.0 mi WNW 6.9 mph - N/A   Clear
11:12 PM 48.2 °F 46.4 °F 93% 29.94 in 10.0 mi WNW 6.9 mph - N/A   Clear
11:33 PM 48.2 °F 46.4 °F 93% 29.94 in 10.0 mi WNW 8.1 mph - N/A   Clear
11:52 PM 48.2 °F 46.4 °F 93% 29.94 in 10.0 mi WNW 8.1 mph - N/A   Clear